THY99 LTFE-LTAC
Flight info
| Callsign | THY99 |
|---|---|
| Flight time | N/A |
| Altitude | 39000 |
| Route | KAVAK UW95 KUXIL DCT BAGLU DCT ATGIT UT58 KFK UT54 HALIL |
| Aircraft | A319/M-SDE3FGHIRWY/LB1 |
Departure
| Time | 2026-04-26 08:50 |
|---|---|
| Airport | Milas Bodrum International Airport (LTFE) |
Arrival
| Time | N/A |
|---|---|
| Airport | Esenboğa International Airport (LTAC) |
| Time | Latitude | Longitude | Altitude | Speed | Heading |
|---|---|---|---|---|---|
| 2026-04-26 08:31 | 37.24402 | 27.67715 | 28 ft | 0 kts | 194° |
| 2026-04-26 08:42 | 37.24407 | 27.67717 | 27 ft | 4 kts | 194° |
| 2026-04-26 08:43 | 37.24434 | 27.67725 | 29 ft | 4 kts | 194° |
| 2026-04-26 08:43 | 37.24455 | 27.67732 | 28 ft | 4 kts | 187° |
| 2026-04-26 08:43 | 37.24477 | 27.67727 | 26 ft | 4 kts | 129° |
| 2026-04-26 08:43 | 37.24486 | 27.67704 | 24 ft | 4 kts | 116° |
| 2026-04-26 08:44 | 37.24496 | 27.67679 | 29 ft | 1 kts | 107° |
| 2026-04-26 08:47 | 37.24492 | 27.67696 | 28 ft | 4 kts | 107° |
| 2026-04-26 08:47 | 37.24478 | 27.67749 | 27 ft | 9 kts | 108° |
| 2026-04-26 08:48 | 37.24456 | 27.67840 | 26 ft | 13 kts | 108° |
| 2026-04-26 08:48 | 37.24427 | 27.67965 | 25 ft | 16 kts | 100° |
| 2026-04-26 08:48 | 37.24489 | 27.68060 | 26 ft | 18 kts | 20° |
| 2026-04-26 08:48 | 37.24623 | 27.68114 | 25 ft | 16 kts | 17° |
| 2026-04-26 08:49 | 37.24631 | 27.68117 | 25 ft | 0 kts | 17° |
| 2026-04-26 08:49 | 37.24662 | 27.68126 | 25 ft | 9 kts | 8° |
| 2026-04-26 08:49 | 37.24740 | 27.68077 | 26 ft | 21 kts | 296° |
| 2026-04-26 08:50 | 37.24845 | 27.67643 | 27 ft | 84 kts | 286° |
| 2026-04-26 08:50 | 37.25072 | 27.66688 | 21 ft | 142 kts | 287° |
| 2026-04-26 08:50 | 37.25390 | 27.65348 | 286 ft | 168 kts | 285° |
| 2026-04-26 08:50 | 37.25735 | 27.63883 | 877 ft | 180 kts | 288° |
| 2026-04-26 08:51 | 37.26490 | 27.60736 | 1914 ft | 208 kts | 289° |
| 2026-04-26 08:51 | 37.26931 | 27.58903 | 2286 ft | 232 kts | 288° |
| 2026-04-26 08:51 | 37.27421 | 27.56861 | 2848 ft | 256 kts | 289° |
| 2026-04-26 08:52 | 37.28130 | 27.54774 | 3717 ft | 265 kts | 307° |
| 2026-04-26 08:52 | 37.29481 | 27.53218 | 4717 ft | 267 kts | 333° |
| 2026-04-26 08:52 | 37.31256 | 27.52586 | 5679 ft | 268 kts | 0° |
| 2026-04-26 08:52 | 37.33068 | 27.53048 | 6656 ft | 269 kts | 27° |
| 2026-04-26 08:53 | 37.34522 | 27.54511 | 7576 ft | 272 kts | 54° |
| 2026-04-26 08:53 | 37.35280 | 27.56672 | 8515 ft | 274 kts | 81° |
| 2026-04-26 08:53 | 37.35370 | 27.59078 | 9492 ft | 277 kts | 91° |
| 2026-04-26 08:53 | 37.35383 | 27.61526 | 10296 ft | 287 kts | 91° |
| 2026-04-26 08:54 | 37.35393 | 27.64139 | 10658 ft | 311 kts | 91° |
| 2026-04-26 08:54 | 37.35406 | 27.66955 | 11015 ft | 331 kts | 90° |
| 2026-04-26 08:54 | 37.35423 | 27.69855 | 11665 ft | 339 kts | 90° |
| 2026-04-26 08:54 | 37.35444 | 27.72846 | 12428 ft | 344 kts | 90° |
| 2026-04-26 08:55 | 37.35466 | 27.75872 | 13193 ft | 349 kts | 90° |
| 2026-04-26 08:55 | 37.35489 | 27.78935 | 13935 ft | 353 kts | 90° |
| 2026-04-26 08:55 | 37.35516 | 27.82035 | 14609 ft | 356 kts | 89° |
| 2026-04-26 08:55 | 37.35951 | 27.85116 | 15261 ft | 362 kts | 71° |
| 2026-04-26 08:56 | 37.37169 | 27.87902 | 15960 ft | 367 kts | 56° |
| 2026-04-26 08:56 | 37.38161 | 27.89685 | 16443 ft | 369 kts | 56° |
| 2026-04-26 08:56 | 37.40128 | 27.93202 | 17379 ft | 373 kts | 56° |
| 2026-04-26 08:56 | 37.41631 | 27.95882 | 18075 ft | 377 kts | 56° |
| 2026-04-26 08:57 | 37.43143 | 27.98589 | 18710 ft | 380 kts | 56° |
| 2026-04-26 08:57 | 37.44667 | 28.01328 | 19352 ft | 382 kts | 56° |
| 2026-04-26 08:57 | 37.46195 | 28.04073 | 20044 ft | 383 kts | 56° |
| 2026-04-26 08:57 | 37.47729 | 28.06831 | 20691 ft | 386 kts | 56° |
| 2026-04-26 08:58 | 37.49273 | 28.09612 | 21301 ft | 389 kts | 56° |
| 2026-04-26 08:58 | 37.50828 | 28.12412 | 21911 ft | 391 kts | 56° |
| 2026-04-26 08:58 | 37.52393 | 28.15225 | 22496 ft | 393 kts | 56° |
| 2026-04-26 08:58 | 37.53963 | 28.18053 | 23071 ft | 395 kts | 56° |
| 2026-04-26 08:59 | 37.55538 | 28.20899 | 23627 ft | 397 kts | 56° |
| 2026-04-26 08:59 | 37.57117 | 28.23761 | 24082 ft | 399 kts | 56° |
| 2026-04-26 08:59 | 37.58706 | 28.26644 | 24520 ft | 402 kts | 56° |
| 2026-04-26 08:59 | 37.60306 | 28.29544 | 24988 ft | 403 kts | 56° |
| 2026-04-26 09:00 | 37.61913 | 28.32455 | 25449 ft | 405 kts | 56° |
| 2026-04-26 09:00 | 37.63530 | 28.35383 | 25915 ft | 407 kts | 56° |
| 2026-04-26 09:00 | 37.65154 | 28.38325 | 26381 ft | 410 kts | 56° |
| 2026-04-26 09:00 | 37.66765 | 28.41252 | 26798 ft | 412 kts | 56° |
| 2026-04-26 09:01 | 37.68403 | 28.44233 | 27221 ft | 415 kts | 56° |